Time;durP1;ratioP1;P1;durP2;ratioP2;P2;SDS_P1;SDS_P2;PMS_P1;PMS_P2;Temp;Humidity;BMP_temperature;BMP_pressure;BME280_temperature;BME280_humidity;BME280_pressure;Samples;Min_cycle;Max_cycle;Signal;HPM_P1;HPM_P2
2022/05/02 04:02:31;;;;;;;13.97;12.23;;;10.50;99.90;;;-143.14;100.00;56521.75;5090707;23;20857;-77
2022/05/02 04:04:58;;;;;;;16.70;13.30;;;10.40;99.90;;;-143.14;100.00;56521.75;5027125;28;20545;-77
2022/05/02 04:07:25;;;;;;;15.10;13.50;;;10.40;99.90;;;-143.14;100.00;56521.75;5026788;28;20791;-77
2022/05/02 04:09:52;;;;;;;16.80;13.87;;;10.40;99.90;;;-143.14;100.00;56521.75;5026934;28;20494;-77
2022/05/02 04:12:19;;;;;;;18.80;13.67;;;10.30;99.90;;;-143.14;100.00;56521.75;5026342;28;20465;-77
2022/05/02 04:14:46;;;;;;;15.07;13.33;;;10.30;99.90;;;-143.14;100.00;56521.75;5026283;28;20829;-77
2022/05/02 04:17:13;;;;;;;18.57;15.00;;;10.30;99.90;;;-143.14;100.00;56521.75;5026406;28;20450;-77
2022/05/02 04:19:41;;;;;;;14.90;12.90;;;10.10;99.90;;;-143.14;100.00;56521.75;5026452;28;20883;-77
2022/05/02 04:22:08;;;;;;;14.40;12.90;;;10.20;99.90;;;-143.14;100.00;56521.75;5024577;28;20478;-77
2022/05/02 04:24:35;;;;;;;15.13;13.30;;;10.10;99.90;;;-143.14;100.00;56521.75;5026769;28;20532;-77
2022/05/02 04:27:03;;;;;;;17.00;13.90;;;10.10;99.90;;;-143.14;100.00;56521.75;5026456;28;20460;-77
2022/05/02 04:29:30;;;;;;;16.70;14.60;;;10.10;99.90;;;-143.14;100.00;56521.75;5026768;28;20498;-77
2022/05/02 04:31:57;;;;;;;17.80;14.70;;;10.10;99.90;;;-143.14;100.00;56521.75;5024788;28;20478;-77
2022/05/02 04:34:26;;;;;;;19.63;15.43;;;10.00;99.90;;;-143.14;100.00;56521.75;5026687;28;20460;-77
2022/05/02 04:36:54;;;;;;;16.43;14.00;;;10.10;99.90;;;-143.14;100.00;56521.75;5026562;28;20537;-77
2022/05/02 04:39:21;;;;;;;16.50;13.30;;;10.10;99.90;;;-143.14;100.00;56521.75;5026269;28;20445;-77
2022/05/02 04:41:48;;;;;;;17.43;12.63;;;10.00;99.90;;;-143.14;100.00;56521.75;5026019;28;20480;-77
2022/05/02 04:44:15;;;;;;;16.50;13.00;;;10.00;99.90;;;-143.14;100.00;56521.75;5026195;28;20833;-77
2022/05/02 04:46:43;;;;;;;16.30;13.60;;;10.10;99.90;;;-143.14;100.00;56521.75;5026432;28;20457;-77
2022/05/02 04:49:10;;;;;;;16.73;13.40;;;10.10;99.90;;;-143.14;100.00;56521.75;5026029;28;21462;-77
2022/05/02 04:51:37;;;;;;;15.70;13.80;;;10.10;99.90;;;-143.14;100.00;56521.75;5025793;28;20568;-77
2022/05/02 04:54:05;;;;;;;18.30;14.27;;;10.20;99.90;;;-143.14;100.00;56521.75;5026210;28;20460;-77
2022/05/02 04:56:32;;;;;;;22.80;16.30;;;10.20;99.90;;;-143.14;100.00;56521.75;5025090;28;20461;-77
2022/05/02 04:59:00;;;;;;;19.20;15.90;;;10.20;99.90;;;-143.14;100.00;56521.75;5026608;28;20461;-80
2022/05/02 05:01:27;;;;;;;18.80;15.20;;;10.20;99.90;;;-143.14;100.00;56521.75;5030639;28;20524;-80
2022/05/02 05:03:54;;;;;;;19.20;15.40;;;10.10;99.90;;;-143.14;100.00;56521.75;5033208;28;20481;-80
2022/05/02 05:06:21;;;;;;;17.43;15.23;;;10.10;99.90;;;-143.14;100.00;56521.75;5032377;28;20486;-80
2022/05/02 05:08:48;;;;;;;16.10;14.40;;;10.10;99.90;;;-143.14;100.00;56521.75;5030522;28;20453;-79
2022/05/02 05:11:35;;;;;;;17.30;14.30;;;10.10;99.90;;;-143.14;100.00;56521.75;5030168;28;20478;-79
2022/05/02 05:17:31;;;;;;;16.87;14.60;;;10.20;99.90;;;-143.14;100.00;56521.75;5030588;28;20433;-79
2022/05/02 05:20:14;;;;;;;17.33;14.97;;;10.10;99.90;;;-143.14;100.00;56521.75;5030885;28;21082;-79
2022/05/02 05:23:10;;;;;;;17.10;14.30;;;10.10;99.90;;;-143.14;100.00;56521.75;5029931;28;20430;-79
2022/05/02 05:25:49;;;;;;;19.77;15.13;;;10.10;99.90;;;-143.14;100.00;56521.75;5030391;28;20450;-79
2022/05/02 05:28:55;;;;;;;16.47;14.33;;;10.10;99.90;;;-143.14;100.00;56521.75;5030284;28;20442;-79
2022/05/02 05:31:38;;;;;;;15.07;13.37;;;10.10;99.90;;;-143.14;100.00;56521.75;5023107;28;20572;-79
2022/05/02 05:34:08;;;;;;;16.10;13.63;;;10.10;99.90;;;-143.14;100.00;56521.75;5030168;28;20454;-78
2022/05/02 05:37:12;;;;;;;15.60;13.83;;;10.20;99.90;;;-143.14;100.00;56521.75;5034357;28;20459;-79
2022/05/02 05:39:50;;;;;;;15.40;13.47;;;10.20;99.90;;;-143.14;100.00;56521.75;5031167;28;20884;-79
2022/05/02 05:42:32;;;;;;;16.70;14.17;;;10.20;99.90;;;-143.14;100.00;56521.75;5028706;28;21020;-78
2022/05/02 05:45:11;;;;;;;15.23;13.60;;;10.20;99.90;;;-143.14;100.00;56521.75;5028409;28;20454;-79
2022/05/02 05:47:59;;;;;;;17.80;15.27;;;10.30;99.90;;;-143.14;100.00;56521.75;5030248;28;20462;-79
2022/05/02 05:50:32;;;;;;;19.43;16.17;;;10.30;99.90;;;-143.14;100.00;56521.75;5029667;28;20584;-79
2022/05/02 05:53:18;;;;;;;20.63;15.90;;;10.40;99.90;;;-143.14;100.00;56521.75;5029423;28;20493;-79
2022/05/02 05:56:08;;;;;;;16.80;15.10;;;10.40;99.90;;;-143.14;100.00;56521.75;5029490;28;20961;-79
2022/05/02 05:58:51;;;;;;;16.73;14.87;;;10.40;99.90;;;-143.14;100.00;56521.75;5030603;28;20442;-79
2022/05/02 06:01:31;;;;;;;20.77;17.07;;;10.50;99.90;;;-143.14;100.00;56521.75;5029088;28;20486;-79
2022/05/02 06:04:06;;;;;;;24.33;19.17;;;10.50;99.90;;;-143.14;100.00;56521.75;5028152;28;20453;-79
2022/05/02 06:06:36;;;;;;;21.23;18.20;;;10.40;99.90;;;-143.14;100.00;56521.75;5030201;28;20444;-78
2022/05/02 06:09:07;;;;;;;18.73;16.73;;;10.50;99.90;;;-143.14;100.00;56521.75;5030165;28;20533;-78
2022/05/02 06:11:39;;;;;;;23.77;18.73;;;10.50;99.90;;;-143.14;100.00;56521.75;5029942;28;20462;-80
2022/05/02 06:14:07;;;;;;;19.80;17.23;;;10.60;99.90;;;-143.14;100.00;56521.75;5028959;28;20470;-80
2022/05/02 06:19:28;;;;;;;23.20;20.17;;;10.70;99.90;;;-143.14;100.00;56521.75;5029210;28;20573;-81
2022/05/02 06:21:56;;;;;;;23.70;20.13;;;10.80;99.90;;;-143.14;100.00;56521.75;5028513;28;20493;-80
2022/05/02 06:24:27;;;;;;;27.90;20.00;;;10.80;99.90;;;-143.14;100.00;56521.75;5028598;28;20456;-81
2022/05/02 06:26:56;;;;;;;28.47;21.90;;;10.90;99.90;;;-143.14;100.00;56521.75;5028108;28;20464;-79
2022/05/02 06:29:25;;;;;;;23.90;20.37;;;11.00;99.90;;;-143.14;100.00;56521.75;5027935;28;20500;-79
2022/05/02 06:31:58;;;;;;;27.67;21.83;;;11.00;99.90;;;-143.14;100.00;56521.75;5027966;28;20474;-79
2022/05/02 06:34:30;;;;;;;23.80;20.50;;;11.00;99.90;;;-143.14;100.00;56521.75;5028277;28;20446;-79
2022/05/02 06:37:26;;;;;;;25.07;19.87;;;11.10;99.90;;;-143.14;100.00;56521.75;5027695;28;20446;-79
2022/05/02 06:40:04;;;;;;;27.17;20.80;;;11.10;99.90;;;-143.14;100.00;56521.75;5028834;28;20564;-80
2022/05/02 06:42:38;;;;;;;24.23;20.00;;;11.20;99.90;;;-143.14;100.00;56521.75;5030119;28;20552;-80
2022/05/02 06:45:36;;;;;;;23.07;20.07;;;11.20;99.90;;;-143.14;100.00;56521.75;5032890;28;20453;-80
2022/05/02 06:48:42;;;;;;;24.47;20.33;;;11.30;99.90;;;-143.14;100.00;56521.75;5032530;28;20464;-79
2022/05/02 06:51:16;;;;;;;27.83;20.70;;;11.40;99.90;;;-143.14;100.00;56521.75;5031372;28;20580;-80
2022/05/02 06:54:25;;;;;;;25.90;21.10;;;11.40;99.90;;;-143.14;100.00;56521.75;5030760;28;20902;-80
2022/05/02 06:57:03;;;;;;;23.90;20.40;;;11.50;99.90;;;-143.14;100.00;56521.75;5031736;28;20802;-80
2022/05/02 06:59:46;;;;;;;25.30;20.30;;;11.50;99.90;;;-143.14;100.00;56521.75;5031792;28;20528;-80
2022/05/02 07:02:57;;;;;;;25.83;20.40;;;11.60;99.90;;;-143.14;100.00;56521.75;5030903;28;21285;-80
2022/05/02 07:05:29;;;;;;;26.83;20.50;;;11.60;99.90;;;-143.14;100.00;56521.75;5031199;28;20533;-80
2022/05/02 07:08:02;;;;;;;21.80;18.97;;;11.60;99.90;;;-143.14;100.00;56521.75;5031924;28;20461;-80
2022/05/02 07:10:34;;;;;;;23.43;19.70;;;11.70;99.90;;;-143.14;100.00;56521.75;5031289;28;20489;-80
2022/05/02 07:13:19;;;;;;;25.90;22.00;;;11.80;99.90;;;-143.14;100.00;56521.75;5030909;28;20438;-80
2022/05/02 07:15:51;;;;;;;24.60;20.90;;;11.90;99.90;;;-143.14;100.00;56521.75;5031441;28;20564;-80
2022/05/02 07:18:38;;;;;;;25.13;19.73;;;11.90;99.90;;;-143.14;100.00;56521.75;5031228;28;20526;-80
2022/05/02 07:21:31;;;;;;;24.90;19.93;;;12.00;99.90;;;-143.14;100.00;56521.75;5031967;28;20493;-80
2022/05/02 07:24:16;;;;;;;25.20;20.10;;;12.10;99.90;;;-143.14;100.00;56521.75;5033873;28;20482;-80
2022/05/02 07:26:55;;;;;;;25.47;19.40;;;12.20;99.90;;;-143.14;100.00;56521.75;5039962;28;20527;-80
2022/05/02 07:29:27;;;;;;;24.73;20.33;;;12.30;99.90;;;-143.14;100.00;56521.75;5033170;28;20893;-80
2022/05/02 07:31:55;;;;;;;25.40;20.30;;;12.40;99.90;;;-143.14;100.00;56521.75;5028395;28;20989;-80
2022/05/02 07:34:25;;;;;;;25.23;18.90;;;12.50;99.90;;;-143.14;100.00;56521.75;5027760;28;20763;-80
2022/05/02 07:36:54;;;;;;;25.00;20.83;;;12.60;99.90;;;-143.14;100.00;56521.75;5028434;28;20890;-80
2022/05/02 07:39:24;;;;;;;26.47;21.20;;;12.90;99.90;;;-143.14;100.00;56521.75;5028656;28;20524;-80
2022/05/02 07:41:52;;;;;;;22.83;19.17;;;13.20;99.90;;;-143.14;100.00;56521.75;5028114;28;20488;-80
2022/05/02 07:44:24;;;;;;;22.00;19.50;;;13.30;99.90;;;-143.14;100.00;56521.75;5028626;28;20458;-80
2022/05/02 07:46:58;;;;;;;21.93;19.60;;;13.30;99.90;;;-143.14;100.00;56521.75;5028154;28;20461;-80
2022/05/02 07:49:31;;;;;;;24.07;18.80;;;13.50;99.90;;;-143.14;100.00;56521.75;5028417;28;20457;-80
2022/05/02 07:52:02;;;;;;;22.47;18.10;;;13.60;99.90;;;-143.14;100.00;56521.75;5027949;28;20845;-80
2022/05/02 07:54:35;;;;;;;23.57;17.50;;;13.70;99.90;;;-143.14;100.00;56521.75;5028586;28;20440;-80
2022/05/02 07:57:05;;;;;;;19.60;16.93;;;13.70;99.90;;;-143.14;100.00;56521.75;5028450;28;20558;-80
2022/05/02 07:59:37;;;;;;;19.57;17.40;;;13.80;99.90;;;-143.14;100.00;56521.75;5029009;28;20442;-79
2022/05/02 08:02:05;;;;;;;22.30;17.70;;;13.90;99.90;;;-143.14;100.00;56521.75;5028047;28;20596;-79
2022/05/02 08:04:33;;;;;;;20.97;17.67;;;14.00;99.90;;;-143.14;100.00;56521.75;5029004;28;20454;-79
2022/05/02 08:07:14;;;;;;;20.23;18.03;;;14.10;99.90;;;-143.14;100.00;56521.75;5029330;28;20533;-79
2022/05/02 08:10:26;;;;;;;23.43;17.77;;;14.20;99.90;;;-143.14;100.00;56521.75;5029439;28;20438;-79
2022/05/02 08:12:57;;;;;;;23.50;18.03;;;14.30;99.90;;;-143.14;100.00;56521.75;5028988;28;20446;-80
2022/05/02 08:15:31;;;;;;;20.53;17.57;;;14.40;99.90;;;-143.14;100.00;56521.75;5029376;28;20474;-80
2022/05/02 08:18:46;;;;;;;22.40;17.17;;;14.50;99.90;;;-143.14;100.00;56521.75;5028367;28;20460;-79
2022/05/02 08:21:19;;;;;;;19.47;17.37;;;14.70;99.90;;;-143.14;100.00;56521.75;5028641;28;20470;-79
2022/05/02 08:27:19;;;;;;;19.43;16.50;;;14.90;99.90;;;-143.14;100.00;56521.75;5028515;28;20421;-79
2022/05/02 08:30:09;;;;;;;18.83;15.70;;;15.00;99.90;;;-143.14;100.00;56521.75;5028777;28;20509;-80
2022/05/02 08:32:57;;;;;;;22.47;16.37;;;15.10;99.90;;;-143.14;100.00;56521.75;5028214;28;20470;-79
2022/05/02 08:35:39;;;;;;;18.60;16.50;;;15.30;99.90;;;-143.14;100.00;56521.75;5028092;28;20827;-79
2022/05/02 08:38:41;;;;;;;23.70;16.03;;;15.40;99.90;;;-143.14;100.00;56521.75;5028253;28;20561;-79
2022/05/02 08:41:43;;;;;;;17.13;14.77;;;15.90;99.90;;;;;;5028480;28;20496;-80
2022/05/02 08:44:42;;;;;;;16.37;14.57;;;16.30;99.90;;;;;;5028749;28;20491;-79
2022/05/02 08:47:46;;;;;;;13.23;11.57;;;16.40;99.90;;;;;;5027980;28;20540;-79
2022/05/02 08:50:24;;;;;;;13.47;11.53;;;17.40;99.90;;;;;;5027323;28;20477;-80
2022/05/02 08:53:32;;;;;;;12.67;11.00;;;18.40;99.90;;;;;;5028030;28;20454;-81
2022/05/02 08:56:25;;;;;;;16.30;12.30;;;18.70;99.90;;;;;;5028000;28;20468;-80
2022/05/02 08:59:36;;;;;;;13.87;11.17;;;18.50;99.90;;;;;;5028417;28;20458;-79
2022/05/02 09:02:36;;;;;;;12.83;11.27;;;18.60;99.90;;;;;;5027484;28;20486;-78
2022/05/02 09:06:00;;;;;;;11.97;10.70;;;18.70;99.90;;;23.47;100.00;56521.75;5027653;28;21047;-78
2022/05/02 09:09:03;;;;;;;12.87;11.07;;;18.70;99.90;;;;;;4985674;28;21024;-69
2022/05/02 09:11:48;;;;;;;16.90;11.80;;;18.90;99.90;;;;;;5025730;28;20833;-69
2022/05/02 09:14:53;;;;;;;13.50;9.77;;;18.90;99.90;;;;;;5025471;28;20443;-71
2022/05/02 09:18:05;;;;;;;11.67;10.47;;;18.90;99.90;;;;;;5020993;28;20537;-71
2022/05/02 09:20:58;;;;;;;11.27;9.93;;;18.80;99.90;;;;;;5006387;28;20475;-70
2022/05/02 09:23:56;;;;;;;10.63;9.27;;;18.70;99.90;;;;;;5005673;28;20525;-71
2022/05/02 09:26:57;;;;;;;10.40;8.50;;;19.00;99.90;;;;;;5005966;28;20911;-70
2022/05/02 09:30:11;;;;;;;9.80;8.80;;;19.00;99.90;;;;;;4994755;28;20471;-69
2022/05/02 09:32:47;;;;;;;12.40;10.47;;;19.00;99.90;;;;;;5005063;28;20492;-77
2022/05/02 09:35:18;;;;;;;11.83;8.90;;;19.10;99.90;;;;;;5006096;28;20466;-77
2022/05/02 09:37:57;;;;;;;12.27;10.87;;;19.10;99.90;;;;;;5006303;28;20435;-77
2022/05/02 09:40:33;;;;;;;10.27;9.30;;;19.10;99.90;;;;;;5006304;28;20446;-76
2022/05/02 09:43:17;;;;;;;12.17;9.50;;;19.20;99.90;;;;;;5008200;28;20462;-79
2022/05/02 09:52:03;;;;;;;8.97;8.07;;;19.50;99.90;;;;;;5005547;28;20541;-77
2022/05/02 09:57:33;;;;;;;11.33;10.13;;;19.40;99.90;;;;;;5010259;28;20438;-80
2022/05/02 10:02:52;;;;;;;10.33;9.33;;;19.10;99.90;;;;;;5008530;28;20460;-79
2022/05/02 10:05:26;;;;;;;11.07;8.87;;;19.20;99.90;;;;;;5009236;28;20463;-79
2022/05/02 10:08:00;;;;;;;9.57;8.30;;;19.40;99.90;;;;;;5008537;28;20443;-79
2022/05/02 10:10:36;;;;;;;11.80;9.83;;;19.50;99.90;;;;;;5008542;28;20984;-79
2022/05/02 10:13:14;;;;;;;10.50;9.10;;;19.50;99.90;;;;;;5007212;28;20494;-79
2022/05/02 10:15:57;;;;;;;12.93;9.43;;;19.50;99.90;;;;;;5011257;28;20462;-79
2022/05/02 10:18:51;;;;;;;9.87;8.87;;;19.40;99.90;;;;;;5012370;28;20480;-80
2022/05/02 10:21:37;;;;;;;12.13;10.67;;;19.10;99.90;;;;;;5012298;28;20892;-80
2022/05/02 10:24:33;;;;;;;10.10;9.10;;;19.00;99.90;;;;;;5010609;28;20453;-79
2022/05/02 10:27:18;;;;;;;10.17;8.50;;;19.20;99.90;;;;;;5011732;28;20463;-81
2022/05/02 10:30:07;;;;;;;9.30;8.50;;;19.30;99.90;;;;;;5010401;28;21000;-80
2022/05/02 10:32:43;;;;;;;11.20;8.27;;;19.40;99.90;;;;;;5006384;28;20493;-78
2022/05/02 10:35:14;;;;;;;9.50;8.43;;;19.50;99.90;;;;;;5009593;28;20426;-78
2022/05/02 10:37:42;;;;;;;7.43;6.73;;;19.50;99.90;;;;;;5010201;28;20458;-79
2022/05/02 10:40:13;;;;;;;9.30;7.53;;;19.50;99.90;;;;;;5012550;28;20454;-81
2022/05/02 10:42:46;;;;;;;10.70;7.00;;;19.50;99.90;;;;;;5009703;28;20455;-72
2022/05/02 10:45:15;;;;;;;8.30;7.20;;;19.50;99.90;;;;;;5008968;28;21008;-72
2022/05/02 10:47:53;;;;;;;10.73;7.03;;;19.50;99.90;;;;;;5008788;28;20514;-70
2022/05/02 10:50:26;;;;;;;8.53;6.80;;;19.50;99.90;;;;;;5008792;28;20442;-70
2022/05/02 10:53:01;;;;;;;7.50;6.73;;;19.70;99.90;;;;;;5008419;28;20868;-70
2022/05/02 10:55:32;;;;;;;8.23;7.00;;;19.80;99.90;;;;;;5008919;28;20548;-70
2022/05/02 10:58:03;;;;;;;6.83;6.03;;;20.00;99.90;;;;;;5008614;28;20449;-70
2022/05/02 11:00:30;;;;;;;9.80;6.40;;;20.00;99.90;;;;;;5008756;28;20438;-71
2022/05/02 11:03:24;;;;;;;7.57;6.77;;;20.10;99.90;;;;;;5007795;28;20649;-72
2022/05/02 11:06:09;;;;;;;6.57;5.90;;;20.30;99.90;;;;;;5008713;28;20439;-72
2022/05/02 11:08:45;;;;;;;6.13;5.50;;;20.20;99.90;;;;;;5009086;28;20474;-78
2022/05/02 11:11:23;;;;;;;8.40;6.67;;;20.30;99.90;;;;;;5009326;28;20497;-79
2022/05/02 11:14:01;;;;;;;6.63;6.00;;;20.30;99.90;;;;;;5009657;28;20500;-80
2022/05/02 11:16:39;;;;;;;11.20;6.50;;;20.30;99.90;;;;;;5010882;28;20467;-79
2022/05/02 11:22:17;;;;;;;7.17;6.20;;;20.50;99.90;;;;;;5008703;28;20528;-78
2022/05/02 11:24:50;;;;;;;7.27;5.87;;;20.30;99.90;;;;;;5010427;28;20516;-77
2022/05/02 11:27:41;;;;;;;7.23;5.50;;;20.20;99.90;;;;;;5008116;28;20546;-77
2022/05/02 11:30:09;;;;;;;6.30;5.67;;;20.10;99.90;;;;;;5008925;28;20529;-77
2022/05/02 11:33:00;;;;;;;6.20;5.57;;;20.10;99.90;;;;;;5007920;28;20498;-77
2022/05/02 11:35:30;;;;;;;6.50;5.40;;;20.00;99.90;;;;;;5009390;28;20438;-78
2022/05/02 11:38:07;;;;;;;5.73;5.20;;;19.80;99.90;;;;;;5010975;28;20454;-77
2022/05/02 11:40:51;;;;;;;8.70;5.17;;;19.70;99.90;;;;;;5010079;28;20532;-78
2022/05/02 11:43:22;;;;;;;7.73;5.40;;;19.70;99.90;;;;;;5010441;28;20443;-77
2022/05/02 11:46:03;;;;;;;7.33;5.77;;;19.70;99.90;;;;;;5010473;28;20951;-78
2022/05/02 11:49:17;;;;;;;6.33;5.73;;;19.70;99.90;;;;;;5007622;28;20465;-77
2022/05/02 11:51:45;;;;;;;7.43;6.50;;;19.60;99.90;;;;;;4983696;28;20505;-79
2022/05/02 11:54:33;;;;;;;8.10;6.20;;;19.60;99.90;;;;;;5009790;28;20446;-79
2022/05/02 11:57:13;;;;;;;6.90;6.30;;;19.60;99.90;;;;;;5010012;28;20935;-78
2022/05/02 11:59:58;;;;;;;9.23;5.13;;;19.60;99.90;;;;;;5010367;28;21018;-78
2022/05/02 12:02:51;;;;;;;6.37;5.50;;;19.80;99.90;;;;;;5007624;28;20482;-76
2022/05/02 12:05:40;;;;;;;8.13;6.23;;;20.00;99.90;;;;;;5007420;28;20449;-78
2022/05/02 12:08:09;;;;;;;6.00;5.43;;;20.10;99.90;;;;;;5008814;28;20443;-78
2022/05/02 12:10:42;;;;;;;7.43;6.10;;;20.10;99.90;;;;;;5008814;28;20471;-79
2022/05/02 12:13:12;;;;;;;6.10;5.50;;;20.30;99.90;;;;;;5008342;28;20815;-78
2022/05/02 12:15:59;;;;;;;5.70;5.13;;;20.30;99.90;;;;;;5007834;28;20486;-76
2022/05/02 12:18:42;;;;;;;6.20;5.37;;;20.40;99.90;;;;;;5006884;28;21655;-77
2022/05/02 12:21:11;;;;;;;6.87;6.20;;;20.50;99.90;;;;;;5006472;28;20466;-76
2022/05/02 12:23:43;;;;;;;9.53;5.90;;;20.50;99.90;;;;;;5006707;28;20465;-79
2022/05/02 12:26:19;;;;;;;7.20;5.47;;;20.70;99.90;;;;;;5007440;28;20540;-77
2022/05/02 12:28:48;;;;;;;6.40;5.80;;;20.80;99.90;;;;;;5007497;28;20462;-79
2022/05/02 12:31:17;;;;;;;6.67;6.07;;;20.80;99.90;;;;;;5010769;28;20498;-79
2022/05/02 12:33:55;;;;;;;6.50;5.90;;;20.70;99.90;;;;;;5010184;28;20486;-80
2022/05/02 12:36:26;;;;;;;7.13;6.00;;;20.70;99.90;;;;;;5010718;28;20474;-80
2022/05/02 12:39:00;;;;;;;6.03;5.43;;;20.60;99.90;;;;;;5010197;28;20538;-78
2022/05/02 12:41:41;;;;;;;6.00;5.40;;;20.60;99.90;;;;;;5010015;28;20470;-78
2022/05/02 12:44:09;;;;;;;6.43;5.83;;;20.70;99.90;;;;;;5009018;28;20439;-78
2022/05/02 12:46:39;;;;;;;7.47;6.67;;;20.80;99.90;;;;;;5009454;28;20454;-77
2022/05/02 12:49:11;;;;;;;9.53;6.80;;;20.70;99.90;;;;;;5009824;28;20950;-77
2022/05/02 12:51:38;;;;;;;10.50;6.03;;;20.70;99.90;;;;;;5009225;28;20502;-78
2022/05/02 12:54:12;;;;;;;7.03;6.30;;;20.60;99.90;;;;;;5008817;28;20494;-80
2022/05/02 13:00:30;;;;;;;6.13;5.53;;;20.40;99.90;;;;;;5009087;28;20494;-78
2022/05/02 13:02:32;;;;;;;5.37;4.90;;;20.40;99.90;;;;;;5007561;28;20982;-78
2022/05/02 13:05:01;;;;;;;5.40;4.90;;;20.50;99.90;;;;;;5008584;28;20454;-78
2022/05/02 13:07:29;;;;;;;4.90;4.23;;;20.50;99.90;;;;;;5008654;28;20463;-78
2022/05/02 13:09:59;;;;;;;4.60;4.20;;;20.70;99.90;;;;;;5009155;28;20497;-78
2022/05/02 13:12:29;;;;;;;9.50;4.97;;;20.90;99.90;;;;;;5007199;28;20506;-78
2022/05/02 13:14:59;;;;;;;6.90;5.13;;;20.90;99.90;;;;;;5009146;28;20570;-78
2022/05/02 13:17:28;;;;;;;5.97;4.70;;;20.80;99.90;;;;;;5008885;28;20896;-78
2022/05/02 13:19:56;;;;;;;6.60;4.83;;;20.80;99.90;;;;;;5008035;28;20548;-78
2022/05/02 13:22:23;;;;;;;5.20;4.70;;;20.80;99.90;;;;;;5007142;28;20474;-78
2022/05/02 13:24:54;;;;;;;5.10;4.60;;;20.90;99.90;;;;;;5008460;28;20562;-78
2022/05/02 13:27:26;;;;;;;4.60;4.13;;;21.00;99.90;;;;;;5008492;28;20997;-78
2022/05/02 13:30:06;;;;;;;4.40;4.00;;;21.10;99.90;;;;;;5009767;28;20431;-78
2022/05/02 13:32:35;;;;;;;4.80;4.40;;;21.20;99.90;;;;;;5008629;28;20494;-79
2022/05/02 13:35:10;;;;;;;4.73;4.00;;;21.20;99.90;;;;;;5010035;28;20462;-78
2022/05/02 13:37:54;;;;;;;4.87;4.47;;;21.20;99.90;;;;;;5008838;28;20995;-78
2022/05/02 13:40:21;;;;;;;5.37;4.87;;;21.20;99.90;;;;;;5008156;28;20438;-77
2022/05/02 13:42:52;;;;;;;5.27;4.87;;;21.20;99.90;;;;;;5005825;28;20470;-77
2022/05/02 13:45:31;;;;;;;4.97;4.47;;;21.20;99.90;;;;;;5006893;28;20466;-78
2022/05/02 13:48:10;;;;;;;6.57;5.10;;;21.10;99.90;;;;;;5007277;28;20450;-77
2022/05/02 13:50:41;;;;;;;5.07;4.40;;;21.10;99.90;;;;;;5005642;28;21049;-78
2022/05/02 13:53:19;;;;;;;4.90;4.50;;;21.10;99.90;;;;;;5005497;28;20494;-77
2022/05/02 13:55:58;;;;;;;6.50;4.50;;;21.10;99.90;;;;;;5006104;28;21050;-77
2022/05/02 13:58:38;;;;;;;5.93;5.40;;;21.20;99.90;;;;;;5006187;28;20450;-77
2022/05/02 14:01:29;;;;;;;6.17;5.20;;;21.30;99.90;;;;;;5006042;28;20478;-77
2022/05/02 14:04:02;;;;;;;4.93;4.47;;;21.30;99.90;;;;;;5005642;28;20482;-77
2022/05/02 14:06:38;;;;;;;4.97;4.53;;;21.40;99.90;;;;;;5008186;28;20542;-78
2022/05/02 14:09:05;;;;;;;8.33;5.60;;;21.40;99.90;;;;;;5025567;28;21192;-74
2022/05/02 14:11:32;;;;;;;6.77;5.27;;;21.50;99.90;;;;;;5025694;28;20497;-75
2022/05/02 14:14:07;;;;;;;7.60;5.50;;;21.60;99.90;;;;;;5024610;28;20490;-75
2022/05/02 14:16:38;;;;;;;6.23;5.23;;;21.50;99.90;;;;;;5025048;28;20465;-73
2022/05/02 14:19:08;;;;;;;7.27;4.60;;;21.50;99.90;;;;;;5025374;28;20457;-75
2022/05/02 14:21:44;;;;;;;5.23;4.53;;;21.50;99.90;;;;;;5025383;28;20474;-74
2022/05/02 14:24:11;;;;;;;5.10;4.53;;;21.50;99.90;;;;;;5025048;28;20446;-77
2022/05/02 14:26:37;;;;;;;5.43;4.93;;;21.40;99.90;;;;;;5025422;28;20472;-77
2022/05/02 14:29:09;;;;;;;5.63;5.03;;;21.40;99.90;;;;;;5025627;28;20452;-78
2022/05/02 14:31:39;;;;;;;5.50;4.40;;;21.30;99.90;;;;;;5028698;28;20505;-78
2022/05/02 14:34:07;;;;;;;5.63;5.00;;;21.30;99.90;;;;;;5028822;28;20457;-79
2022/05/02 14:36:36;;;;;;;5.63;4.73;;;21.20;99.90;;;;;;5028822;28;21000;-79
2022/05/02 14:39:04;;;;;;;5.80;4.63;;;21.20;99.90;;;;;;5028344;28;20454;-80
2022/05/02 14:41:37;;;;;;;5.10;4.60;;;21.10;99.90;;;;;;5028918;28;20489;-79
2022/05/02 14:44:07;;;;;;;5.50;5.00;;;21.10;99.90;;;;;;5028266;28;20481;-79
2022/05/02 14:46:34;;;;;;;5.30;4.80;;;21.10;99.90;;;;;;5029174;28;20437;-79
2022/05/02 14:49:03;;;;;;;7.53;5.57;;;21.10;99.90;;;;;;5027620;28;20528;-78
2022/05/02 14:51:38;;;;;;;6.63;5.40;;;21.00;99.90;;;;;;5027911;28;20506;-77
2022/05/02 14:54:07;;;;;;;5.60;5.10;;;21.00;99.90;;;;;;5026351;28;20797;-78
2022/05/02 14:56:39;;;;;;;5.30;4.80;;;20.90;99.90;;;;;;5026350;28;20465;-77
2022/05/02 14:59:10;;;;;;;6.03;5.00;;;20.80;99.90;;;;;;5026368;28;20465;-76
2022/05/02 15:01:40;;;;;;;5.07;4.67;;;20.80;99.90;;;;;;5027497;28;20570;-79
2022/05/02 15:04:14;;;;;;;5.43;5.03;;;20.80;99.90;;;;;;5032804;28;20988;-79
2022/05/02 15:06:42;;;;;;;5.33;4.73;;;20.70;99.90;;;;;;5033503;28;20457;-79
2022/05/02 15:10:12;;;;;;;6.13;5.37;;;20.70;99.90;;;;;;5032251;28;20545;-78
2022/05/02 15:12:24;;;;;;;5.80;5.27;;;20.70;99.90;;;;;;5031491;28;20516;-79
2022/05/02 15:15:15;;;;;;;6.10;5.57;;;20.60;99.90;;;;;;5031971;28;20549;-79
2022/05/02 15:17:51;;;;;;;5.80;5.20;;;20.60;99.90;;;;;;5032223;28;20560;-79
2022/05/02 15:20:23;;;;;;;5.97;5.37;;;20.60;99.90;;;;;;5033020;28;20436;-78
2022/05/02 15:22:52;;;;;;;5.13;4.73;;;20.70;99.90;;;;;;5033308;28;20470;-81
2022/05/02 15:25:21;;;;;;;5.40;4.77;;;20.70;99.90;;;;;;5033452;28;20488;-79
2022/05/02 15:36:41;;;;;;;7.50;5.63;;;20.60;99.90;;;;;;5032938;28;20450;-79
2022/05/02 15:39:11;;;;;;;6.03;5.40;;;20.60;99.90;;;;;;5034272;28;20454;-78
2022/05/02 15:42:04;;;;;;;7.90;5.20;;;20.70;99.90;;;;;;5032481;28;20557;-78
2022/05/02 15:44:46;;;;;;;6.13;5.30;;;20.60;99.90;;;;;;5032265;28;20477;-79
2022/05/02 15:47:18;;;;;;;7.57;6.43;;;20.60;99.90;;;;;;5030542;28;20454;-80
2022/05/02 15:49:51;;;;;;;7.40;6.33;;;20.60;99.90;;;;;;5032251;28;21376;-79
2022/05/02 15:52:21;;;;;;;8.10;6.50;;;20.70;99.90;;;;;;5031268;28;20499;-78
2022/05/02 15:54:59;;;;;;;7.50;6.70;;;20.70;99.90;;;;;;5030695;28;20460;-77
2022/05/02 15:57:48;;;;;;;9.60;6.63;;;20.50;99.90;;;;;;5031110;28;20934;-78
2022/05/02 16:00:27;;;;;;;6.77;5.87;;;20.30;99.90;;;;;;5031991;28;20438;-79
2022/05/02 16:03:12;;;;;;;9.73;6.40;;;20.30;99.90;;;;;;5031710;28;20458;-79
2022/05/02 16:05:42;;;;;;;6.90;5.40;;;20.40;99.90;;;;;;5032376;28;20813;-79
2022/05/02 16:10:59;;;;;;;6.20;5.60;;;20.50;99.90;;;;;;5031625;28;20619;-78
2022/05/02 16:13:35;;;;;;;9.13;6.70;;;20.60;99.90;;;;;;5029015;28;20494;-77
2022/05/02 16:16:10;;;;;;;7.70;6.90;;;20.50;99.90;;;;;;5030366;28;20443;-78
2022/05/02 16:18:38;;;;;;;7.30;6.30;;;20.50;99.90;;;;;;5030360;28;20449;-79
2022/05/02 16:21:05;;;;;;;6.37;5.47;;;20.60;99.90;;;;;;5030969;28;20521;-78
2022/05/02 16:23:34;;;;;;;6.80;6.07;;;20.60;99.90;;;;;;5029853;28;20454;-78
2022/05/02 16:26:01;;;;;;;9.00;6.50;;;20.60;99.90;;;;;;5029152;28;20457;-78
2022/05/02 16:28:28;;;;;;;7.10;5.90;;;20.60;99.90;;;;;;5029054;28;21207;-78
2022/05/02 16:31:03;;;;;;;6.57;5.97;;;20.60;99.90;;;;;;5029045;28;20481;-78
2022/05/02 16:33:31;;;;;;;7.50;6.20;;;20.50;99.90;;;;;;5029025;28;20564;-79
2022/05/02 16:35:59;;;;;;;7.20;6.53;;;20.50;99.90;;;;;;5032097;28;21346;-79
2022/05/02 16:38:31;;;;;;;6.53;5.97;;;20.50;99.90;;;;;;5030220;28;20458;-79
2022/05/02 16:41:06;;;;;;;6.50;5.80;;;20.40;99.90;;;;;;5030581;28;20585;-78
2022/05/02 16:43:33;;;;;;;7.70;6.03;;;20.40;99.90;;;;;;5030339;28;20460;-79
2022/05/02 16:46:02;;;;;;;6.50;5.90;;;20.50;99.90;;;;;;5031306;28;20832;-79
2022/05/02 16:48:30;;;;;;;6.97;6.33;;;20.50;99.90;;;;;;5031026;28;21435;-78
2022/05/02 16:50:57;;;;;;;7.03;6.27;;;20.40;99.90;;;;;;5031214;28;21002;-78
2022/05/02 16:53:24;;;;;;;7.73;6.90;;;20.40;99.90;;;;;;5031203;28;20498;-78